Time;durP1;ratioP1;P1;durP2;ratioP2;P2;SDS_P1;SDS_P2;PMS_P1;PMS_P2;Temp;Humidity;BMP_temperature;BMP_pressure;BME280_temperature;BME280_humidity;BME280_pressure;Samples;Min_cycle;Max_cycle;Signal;HPM_P1;HPM_P2
2022/04/20 00:02:23;;;;;;;1.98;0.80;;;11.80;54.70;;;;;;5010283;28;20138;-89
2022/04/20 00:04:53;;;;;;;2.55;1.05;;;11.70;54.70;;;;;;5013138;28;20096;-90
2022/04/20 00:07:21;;;;;;;2.00;0.80;;;11.70;54.80;;;;;;4997192;28;20117;-89
2022/04/20 00:09:49;;;;;;;2.00;0.90;;;11.60;54.90;;;;;;4998405;28;20042;-89
2022/04/20 00:12:16;;;;;;;2.92;1.10;;;11.60;55.00;;;;;;4995588;28;20490;-90
2022/04/20 00:14:44;;;;;;;2.13;0.85;;;11.60;55.60;;;;;;4980397;28;20053;-88
2022/04/20 00:17:11;;;;;;;2.08;0.80;;;11.60;55.10;;;;;;4982704;28;20062;-89
2022/04/20 00:19:38;;;;;;;2.05;0.60;;;11.50;55.10;;;;;;4983105;28;20121;-89
2022/04/20 00:22:06;;;;;;;2.13;0.77;;;11.50;55.20;;;;;;4986000;28;20060;-89
2022/04/20 00:24:33;;;;;;;1.80;0.65;;;11.50;55.20;;;;;;4992555;28;20049;-88
2022/04/20 00:27:00;;;;;;;1.80;0.70;;;11.50;55.30;;;;;;4988764;28;20491;-84
2022/04/20 00:29:28;;;;;;;1.88;0.70;;;11.40;55.30;;;;;;4978865;28;20033;-89
2022/04/20 00:31:55;;;;;;;2.97;1.10;;;11.40;55.30;;;;;;4980446;28;20409;-89
2022/04/20 00:34:22;;;;;;;2.80;0.70;;;11.40;55.30;;;;;;4992011;28;20057;-89
2022/04/20 00:36:55;;;;;;;1.48;0.82;;;11.40;55.30;;;;;;4980507;28;20061;-83
2022/04/20 00:39:22;;;;;;;1.20;0.55;;;11.40;55.40;;;;;;5007226;28;20041;-83
2022/04/20 00:41:52;;;;;;;1.45;0.60;;;11.30;55.50;;;;;;4990905;28;20049;-83
2022/04/20 00:44:20;;;;;;;1.80;0.77;;;11.30;55.50;;;;;;5007288;28;20071;-83
2022/04/20 00:46:47;;;;;;;3.70;0.85;;;11.20;55.60;;;;;;4995003;28;20403;-83
2022/04/20 00:49:16;;;;;;;1.75;0.50;;;11.20;55.60;;;;;;4991006;28;20125;-83
2022/04/20 00:51:52;;;;;;;1.27;0.40;;;11.20;55.70;;;;;;4983514;28;20038;-83
2022/04/20 00:54:20;;;;;;;1.33;0.55;;;11.20;55.80;;;;;;5000452;28;20045;-84
2022/04/20 00:56:50;;;;;;;1.88;0.60;;;11.10;55.80;;;;;;5011649;28;20160;-83
2022/04/20 00:59:22;;;;;;;1.98;0.60;;;11.10;55.80;;;;;;4995459;28;20042;-83
2022/04/20 01:01:51;;;;;;;1.20;0.50;;;11.10;55.90;;;;;;4984273;28;20088;-83
2022/04/20 01:04:20;;;;;;;1.70;0.65;;;11.00;55.80;;;;;;5011312;28;20418;-83
2022/04/20 01:06:49;;;;;;;1.85;0.60;;;11.00;55.90;;;;;;5010874;28;20478;-82
2022/04/20 01:09:35;;;;;;;1.25;0.50;;;11.00;55.90;;;;;;4997756;28;20219;-83
2022/04/20 01:12:29;;;;;;;1.35;0.45;;;11.00;55.90;;;;;;4978405;28;20041;-83
2022/04/20 01:15:18;;;;;;;3.22;0.70;;;11.00;55.90;;;;;;4982655;28;20049;-83
2022/04/20 01:18:22;;;;;;;1.60;0.52;;;10.90;55.90;;;;;;4997929;28;20057;-83
2022/04/20 01:21:01;;;;;;;1.15;0.50;;;10.90;55.80;;;;;;4972258;28;20045;-83
2022/04/20 01:23:43;;;;;;;1.05;0.50;;;10.90;55.80;;;;;;5003465;28;20065;-83
2022/04/20 01:26:29;;;;;;;1.42;0.50;;;10.90;55.80;;;;;;4994983;28;20482;-83
2022/04/20 01:29:32;;;;;;;1.15;0.40;;;10.90;55.80;;;;;;4977753;28;20046;-83
2022/04/20 01:32:10;;;;;;;0.95;0.40;;;10.80;55.70;;;;;;4997780;28;20069;-83
2022/04/20 01:35:09;;;;;;;1.27;0.43;;;10.80;55.80;;;;;;4986023;28;20474;-83
2022/04/20 01:37:37;;;;;;;1.30;0.45;;;10.80;55.90;;;;;;4996666;28;20517;-83
2022/04/20 01:40:05;;;;;;;1.55;0.60;;;10.80;55.90;;;;;;4997539;28;20045;-83
2022/04/20 01:42:33;;;;;;;2.53;0.50;;;10.80;55.80;;;;;;4998811;28;20073;-83
2022/04/20 01:45:03;;;;;;;1.05;0.40;;;10.70;55.70;;;;;;4976307;28;20045;-83
2022/04/20 01:47:51;;;;;;;1.52;0.50;;;10.70;55.80;;;;;;4986700;28;20057;-83
2022/04/20 01:50:26;;;;;;;2.53;0.50;;;10.70;55.70;;;;;;5005274;28;20533;-83
2022/04/20 01:53:15;;;;;;;1.77;0.43;;;10.70;55.70;;;;;;4991527;28;20536;-82
2022/04/20 01:56:14;;;;;;;1.25;0.70;;;10.70;55.60;;;;;;4997982;28;20070;-89
2022/04/20 01:58:58;;;;;;;1.02;0.50;;;10.70;55.40;;;;;;4995691;28;20490;-89
2022/04/20 02:04:44;;;;;;;2.35;0.60;;;10.70;55.10;;;;;;4986986;28;20057;-89
2022/04/20 02:07:11;;;;;;;0.88;0.30;;;10.80;54.90;;;;;;5014711;28;20050;-90
2022/04/20 02:09:44;;;;;;;1.65;0.60;;;10.80;54.90;;;;;;5012480;28;20053;-89
2022/04/20 02:12:20;;;;;;;1.23;0.40;;;10.80;55.50;;;;;;4991195;28;20054;-90
2022/04/20 02:15:06;;;;;;;0.95;0.30;;;10.70;54.80;;;;;;5010048;28;20526;-90
2022/04/20 02:17:59;;;;;;;0.75;0.40;;;10.70;54.90;;;;;;4985116;28;20046;-90
2022/04/20 02:20:47;;;;;;;0.82;0.32;;;10.70;55.00;;;;;;5005618;28;20478;-91
2022/04/20 02:23:15;;;;;;;1.00;0.40;;;10.70;55.00;;;;;;5013783;28;20069;-90
2022/04/20 02:25:43;;;;;;;1.35;0.40;;;10.70;54.90;;;;;;4999283;28;20046;-89
2022/04/20 02:28:11;;;;;;;1.25;0.45;;;10.60;54.80;;;;;;5012132;28;20499;-90
2022/04/20 02:30:38;;;;;;;1.10;0.38;;;10.60;54.80;;;;;;5009307;28;20057;-90
2022/04/20 02:33:06;;;;;;;1.08;0.40;;;10.60;54.80;;;;;;5015459;28;20542;-90
2022/04/20 02:35:35;;;;;;;1.02;0.50;;;10.60;54.80;;;;;;4982837;28;20078;-90
2022/04/20 02:38:11;;;;;;;1.42;0.40;;;10.60;54.80;;;;;;5014816;28;20068;-89
2022/04/20 02:40:39;;;;;;;2.50;0.50;;;10.50;54.90;;;;;;4995608;28;20058;-90
2022/04/20 02:43:06;;;;;;;0.82;0.40;;;10.50;54.90;;;;;;4997836;28;20041;-90
2022/04/20 02:45:33;;;;;;;1.00;0.40;;;10.50;55.00;;;;;;5014879;28;20046;-90
2022/04/20 02:48:01;;;;;;;1.42;0.43;;;10.50;55.00;;;;;;5015283;28;20049;-90
2022/04/20 02:50:29;;;;;;;1.08;0.45;;;10.40;55.00;;;;;;5010969;28;20117;-90
2022/04/20 02:52:58;;;;;;;2.17;0.50;;;10.40;55.10;;;;;;5011123;28;20042;-89
2022/04/20 02:55:25;;;;;;;1.23;0.43;;;10.40;55.20;;;;;;4998589;28;20114;-89
2022/04/20 02:57:53;;;;;;;1.30;0.40;;;10.40;55.20;;;;;;4979692;28;20046;-89
2022/04/20 03:00:20;;;;;;;2.00;0.40;;;10.40;55.20;;;;;;5014148;28;20049;-90
2022/04/20 03:02:58;;;;;;;0.88;0.30;;;10.30;55.20;;;;;;4999459;28;20104;-89
2022/04/20 03:05:25;;;;;;;1.90;0.57;;;10.30;55.40;;;;;;5010979;28;20059;-90
2022/04/20 03:07:53;;;;;;;1.00;0.50;;;10.30;55.40;;;;;;4991649;28;20042;-89
2022/04/20 03:10:22;;;;;;;1.25;0.52;;;10.20;55.30;;;;;;4998689;28;20402;-90
2022/04/20 03:12:50;;;;;;;1.17;0.43;;;10.20;55.30;;;;;;4998627;28;20065;-89
2022/04/20 03:15:20;;;;;;;1.38;0.60;;;10.20;55.30;;;;;;4998121;28;20170;-89
2022/04/20 03:17:48;;;;;;;1.15;0.50;;;10.20;55.40;;;;;;5014383;28;20050;-88
2022/04/20 03:20:15;;;;;;;1.15;0.45;;;10.20;55.40;;;;;;5014400;28;20054;-90
2022/04/20 03:22:43;;;;;;;1.00;0.40;;;10.10;55.40;;;;;;4997839;28;20099;-88
2022/04/20 03:25:11;;;;;;;1.40;0.50;;;10.10;55.40;;;;;;4997838;28;20081;-89
2022/04/20 03:27:50;;;;;;;1.48;0.50;;;10.10;55.50;;;;;;5007622;28;20049;-88
2022/04/20 03:30:19;;;;;;;1.33;0.43;;;10.10;55.50;;;;;;5025294;28;20093;-88
2022/04/20 03:32:46;;;;;;;1.50;0.52;;;10.00;55.50;;;;;;5020586;28;20038;-83
2022/04/20 03:35:16;;;;;;;1.63;0.60;;;10.00;55.50;;;;;;5002839;28;20038;-84
2022/04/20 03:37:43;;;;;;;1.38;0.50;;;10.00;55.50;;;;;;5001830;28;20045;-84
2022/04/20 03:40:11;;;;;;;2.08;0.50;;;10.00;55.60;;;;;;5004426;28;20486;-83
2022/04/20 03:42:38;;;;;;;1.60;0.57;;;10.00;55.60;;;;;;5014360;28;20052;-84
2022/04/20 03:45:09;;;;;;;1.55;0.65;;;9.90;55.60;;;;;;5001440;28;20501;-83
2022/04/20 03:47:38;;;;;;;0.90;0.40;;;10.00;55.60;;;;;;4965821;28;20053;-83
2022/04/20 03:50:06;;;;;;;1.55;0.40;;;9.90;55.70;;;;;;5010004;28;20046;-84
2022/04/20 03:52:34;;;;;;;1.10;0.40;;;9.80;56.20;;;;;;5012675;28;20045;-83
2022/04/20 03:55:01;;;;;;;1.67;0.52;;;9.80;55.70;;;;;;4996307;28;20037;-83
2022/04/20 03:57:30;;;;;;;1.10;0.43;;;9.90;55.70;;;;;;4996812;28;20127;-83
2022/04/20 03:59:57;;;;;;;1.27;0.40;;;9.80;55.70;;;;;;4995989;28;20506;-83
2022/04/20 04:02:26;;;;;;;1.02;0.40;;;9.80;55.80;;;;;;4995628;28;20088;-84
2022/04/20 04:05:10;;;;;;;0.73;0.40;;;9.80;55.80;;;;;;4997804;28;20046;-83
2022/04/20 04:07:50;;;;;;;0.95;0.38;;;9.80;55.90;;;;;;5005442;28;20053;-89
2022/04/20 04:10:24;;;;;;;2.08;0.40;;;9.70;55.90;;;;;;4987173;28;20041;-89
2022/04/20 04:12:53;;;;;;;0.98;0.47;;;9.70;56.00;;;;;;5001107;28;20045;-89
2022/04/20 04:15:20;;;;;;;1.00;0.30;;;9.70;56.00;;;;;;4996719;28;20576;-89
2022/04/20 04:17:54;;;;;;;1.25;0.40;;;9.70;56.00;;;;;;4993374;28;20073;-89
2022/04/20 04:20:31;;;;;;;1.55;0.50;;;9.70;56.00;;;;;;4955654;28;20045;-89
2022/04/20 04:22:58;;;;;;;0.90;0.30;;;9.60;56.00;;;;;;4993187;28;20082;-89
2022/04/20 04:25:48;;;;;;;1.05;0.40;;;9.60;56.10;;;;;;4999180;28;20127;-89
2022/04/20 04:28:45;;;;;;;1.58;0.40;;;9.60;56.20;;;;;;4999225;28;20054;-89
2022/04/20 04:31:13;;;;;;;0.98;0.30;;;9.60;56.30;;;;;;4997540;28;20049;-84
2022/04/20 04:33:41;;;;;;;1.00;0.30;;;9.50;56.30;;;;;;5003198;28;20104;-84
2022/04/20 04:36:09;;;;;;;0.90;0.30;;;9.60;56.30;;;;;;4982085;28;20081;-83
2022/04/20 04:38:57;;;;;;;1.25;0.38;;;9.50;56.30;;;;;;4990817;28;20080;-84
2022/04/20 04:41:28;;;;;;;1.40;0.43;;;9.50;56.40;;;;;;4981722;28;20056;-83
2022/04/20 04:43:58;;;;;;;1.02;0.30;;;9.50;56.40;;;;;;4985767;28;20101;-83
2022/04/20 04:49:20;;;;;;;1.58;0.50;;;9.50;56.50;;;;;;4976019;28;20051;-83
2022/04/20 04:51:47;;;;;;;0.82;0.50;;;9.50;56.50;;;;;;4994477;28;20525;-82
2022/04/20 04:54:17;;;;;;;0.73;0.30;;;9.50;56.50;;;;;;5004671;28;20045;-84
2022/04/20 04:56:44;;;;;;;1.30;0.30;;;9.50;56.40;;;;;;4980753;28;20060;-83
2022/04/20 04:59:12;;;;;;;0.73;0.30;;;9.50;56.50;;;;;;4994104;28;20050;-83
2022/04/20 05:01:40;;;;;;;0.93;0.47;;;9.50;56.40;;;;;;4991681;28;20097;-84
2022/04/20 05:04:12;;;;;;;1.48;0.50;;;9.50;56.50;;;;;;4995325;28;20137;-89
2022/04/20 05:06:42;;;;;;;1.20;0.40;;;9.50;56.40;;;;;;5004579;28;20060;-89
2022/04/20 05:09:29;;;;;;;1.15;0.30;;;9.50;56.60;;;;;;4982728;28;20405;-90
2022/04/20 05:11:57;;;;;;;1.45;0.60;;;9.50;56.50;;;;;;4982037;28;20042;-89
2022/04/20 05:14:24;;;;;;;1.70;0.52;;;9.50;56.30;;;;;;4974838;28;20138;-89
2022/04/20 05:16:55;;;;;;;2.13;0.40;;;9.50;56.20;;;;;;4984184;28;20127;-89
2022/04/20 05:19:24;;;;;;;0.82;0.32;;;9.60;56.20;;;;;;4999771;28;20050;-88
2022/04/20 05:21:54;;;;;;;1.95;0.70;;;9.60;56.20;;;;;;5003480;28;20046;-84
2022/04/20 05:24:28;;;;;;;0.90;0.30;;;9.60;56.20;;;;;;4971517;28;20049;-89
2022/04/20 05:26:56;;;;;;;1.40;0.57;;;9.60;56.20;;;;;;4984195;28;20120;-84
2022/04/20 05:29:27;;;;;;;1.60;0.50;;;9.70;56.20;;;;;;4998614;28;20552;-85
2022/04/20 05:32:02;;;;;;;3.08;1.52;;;9.70;56.20;;;;;;4999291;28;20137;-84
2022/04/20 05:34:33;;;;;;;1.85;0.60;;;9.70;56.10;;;;;;5000115;28;20104;-83
2022/04/20 05:42:40;;;;;;;0.68;0.40;;;9.90;55.90;;;;;;4996546;28;20065;-88
2022/04/20 05:45:09;;;;;;;2.35;0.40;;;9.90;55.80;;;;;;5000090;28;20136;-88
2022/04/20 05:47:38;;;;;;;1.15;0.22;;;10.00;55.70;;;;;;4999671;28;20045;-88
2022/04/20 05:50:07;;;;;;;1.23;0.35;;;10.10;55.70;;;;;;4987100;28;20068;-89
2022/04/20 05:52:34;;;;;;;0.35;0.20;;;10.10;55.60;;;;;;4980762;28;20050;-87
2022/04/20 05:55:04;;;;;;;0.73;0.30;;;10.10;55.50;;;;;;4981480;28;20042;-88
2022/04/20 05:57:36;;;;;;;0.80;0.30;;;10.20;55.40;;;;;;4983132;28;20065;-89
2022/04/20 06:00:04;;;;;;;0.93;0.40;;;10.30;55.40;;;;;;4986279;28;20128;-89
2022/04/20 06:02:41;;;;;;;0.22;0.10;;;10.30;55.30;;;;;;4996107;28;20047;-89
2022/04/20 06:05:13;;;;;;;1.10;0.28;;;10.40;55.30;;;;;;4996661;28;20108;-88
2022/04/20 06:07:58;;;;;;;0.50;0.20;;;10.50;55.20;;;;;;5007093;28;20041;-89
2022/04/20 06:10:52;;;;;;;0.88;0.30;;;10.50;55.10;;;;;;4996831;28;20050;-88
2022/04/20 06:13:19;;;;;;;0.68;0.28;;;10.60;55.00;;;;;;5011314;28;20045;-88
2022/04/20 06:15:57;;;;;;;0.75;0.30;;;10.70;54.90;;;;;;5005108;28;20050;-88
2022/04/20 06:18:36;;;;;;;0.65;0.20;;;10.70;54.80;;;;;;5001960;28;20073;-89
2022/04/20 06:21:20;;;;;;;1.00;0.40;;;10.80;54.70;;;;;;5001697;28;20120;-88
2022/04/20 06:24:22;;;;;;;0.70;0.30;;;10.90;54.60;;;;;;4985619;28;20050;-88
2022/04/20 06:26:56;;;;;;;1.00;0.30;;;10.90;54.40;;;;;;4953234;28;20045;-87
2022/04/20 06:29:45;;;;;;;1.05;0.30;;;11.00;54.30;;;;;;5001725;28;20374;-86
2022/04/20 06:32:24;;;;;;;1.13;0.30;;;11.10;54.30;;;;;;4999913;28;20061;-87
2022/04/20 06:35:10;;;;;;;1.65;0.60;;;11.20;54.20;;;;;;5015290;28;20052;-88
2022/04/20 06:38:08;;;;;;;3.45;0.57;;;11.20;53.90;;;;;;4988914;28;20041;-85
2022/04/20 06:40:45;;;;;;;1.10;0.47;;;11.30;53.80;;;;;;5000692;28;20058;-82
2022/04/20 06:43:21;;;;;;;1.95;0.60;;;11.30;53.70;;;;;;4987081;28;20457;-82
2022/04/20 06:46:05;;;;;;;1.75;0.50;;;11.40;53.50;;;;;;4999268;28;20112;-81
2022/04/20 06:48:52;;;;;;;1.75;0.63;;;11.50;53.50;;;;;;4990435;28;20053;-84
2022/04/20 07:00:12;;;;;;;1.20;0.50;;;11.70;53.00;;;;;;4997539;28;20521;-84
2022/04/20 07:02:59;;;;;;;2.45;0.68;;;11.70;52.90;;;;;;5008925;28;20060;-88
2022/04/20 07:05:45;;;;;;;1.20;0.50;;;11.80;52.80;;;;;;5000920;28;20120;-87
2022/04/20 07:08:28;;;;;;;1.58;0.50;;;11.90;52.80;;;;;;4999095;28;20046;-87
2022/04/20 07:11:16;;;;;;;2.25;0.55;;;12.00;52.70;;;;;;4984168;28;20050;-89
2022/04/20 07:13:46;;;;;;;2.30;0.43;;;12.00;52.60;;;;;;5008581;28;20070;-86
2022/04/20 07:16:14;;;;;;;1.50;0.40;;;12.10;52.60;;;;;;4981938;28;20046;-87
2022/04/20 07:18:45;;;;;;;1.50;0.50;;;12.20;52.60;;;;;;4993950;28;20053;-84
2022/04/20 07:21:23;;;;;;;1.13;0.40;;;12.20;52.50;;;;;;4988744;28;20046;-83
2022/04/20 07:24:05;;;;;;;1.60;0.50;;;12.30;52.50;;;;;;5010358;28;20473;-84
2022/04/20 07:26:47;;;;;;;;;;;12.40;52.50;;;;;;4969322;28;20046;-79
2022/04/20 07:29:24;;;;;;;1.13;0.30;;;12.40;52.50;;;;;;4980273;28;20012;-79
2022/04/20 07:32:09;;;;;;;1.67;0.60;;;12.50;52.40;;;;;;5013140;28;20049;-84
2022/04/20 07:34:42;;;;;;;;;;;12.60;52.30;;;;;;4997589;28;20046;-81
2022/04/20 07:37:38;;;;;;;1.15;0.40;;;12.60;52.30;;;;;;5000081;28;20328;-80
2022/04/20 07:40:28;;;;;;;0.73;0.30;;;12.70;52.20;;;;;;5000561;28;20116;-84
2022/04/20 07:43:07;;;;;;;1.20;0.40;;;12.80;52.20;;;;;;5012560;28;20135;-86
2022/04/20 07:45:34;;;;;;;1.20;0.30;;;12.90;52.10;;;;;;5005708;28;20125;-84
2022/04/20 07:48:16;;;;;;;1.15;0.40;;;13.00;52.00;;;;;;4998258;28;20050;-84
2022/04/20 07:51:02;;;;;;;0.70;0.43;;;13.10;52.00;;;;;;4997237;28;20050;-80
2022/04/20 07:53:48;;;;;;;0.93;0.30;;;13.20;52.00;;;;;;5003421;28;20104;-85
2022/04/20 07:56:15;;;;;;;0.63;0.30;;;13.30;51.90;;;;;;5013901;28;20045;-84
2022/04/20 07:59:14;;;;;;;1.33;0.40;;;13.30;51.80;;;;;;4992359;28;20395;-80
2022/04/20 08:01:51;;;;;;;0.88;0.43;;;13.40;51.70;;;;;;4992550;28;20042;-79
2022/04/20 08:04:27;;;;;;;1.38;0.47;;;13.50;51.60;;;;;;5006366;28;20513;-80
2022/04/20 08:07:04;;;;;;;0.80;0.40;;;13.60;51.50;;;;;;5009178;28;20053;-84
2022/04/20 08:09:34;;;;;;;0.77;0.45;;;13.70;51.50;;;;;;4998957;28;20041;-84
2022/04/20 08:12:03;;;;;;;1.20;0.50;;;13.80;51.40;;;;;;5005585;28;20053;-81
2022/04/20 08:14:30;;;;;;;1.35;0.50;;;13.90;51.30;;;;;;5000510;28;20053;-84
2022/04/20 08:17:23;;;;;;;1.27;0.40;;;14.00;51.30;;;;;;4998237;28;20057;-81
2022/04/20 08:20:26;;;;;;;1.17;0.40;;;14.10;51.20;;;;;;4953507;29;20092;-82
2022/04/20 08:22:55;;;;;;;2.08;0.43;;;14.20;51.00;;;;;;4971374;28;20417;-81
2022/04/20 08:25:22;;;;;;;1.35;0.50;;;14.30;50.90;;;;;;4995469;28;20069;-83
2022/04/20 08:27:49;;;;;;;1.02;0.47;;;14.30;50.80;;;;;;4996328;28;20049;-86
2022/04/20 08:30:16;;;;;;;0.98;0.40;;;14.40;51.40;;;;;;5007348;28;20088;-84
2022/04/20 08:32:44;;;;;;;0.80;0.30;;;14.50;50.60;;;;;;5006671;28;20046;-81
2022/04/20 08:35:11;;;;;;;0.93;0.40;;;14.60;50.50;;;;;;4992575;28;20118;-82
2022/04/20 08:37:42;;;;;;;1.23;0.52;;;14.60;50.30;;;;;;5002129;28;20077;-82
2022/04/20 08:40:10;;;;;;;1.25;0.40;;;14.70;50.20;;;;;;4990259;28;20056;-82
2022/04/20 08:42:39;;;;;;;1.25;0.50;;;14.80;50.00;;;;;;4963422;28;20054;-84
2022/04/20 08:45:07;;;;;;;1.55;0.50;;;14.80;49.80;;;;;;4968728;28;20050;-82
2022/04/20 08:47:37;;;;;;;1.08;0.60;;;14.80;49.60;;;;;;4993805;28;20046;-85
2022/04/20 08:50:07;;;;;;;2.22;0.60;;;14.80;49.40;;;;;;4984572;28;20457;-85
2022/04/20 08:52:37;;;;;;;2.20;0.68;;;14.80;49.30;;;;;;4978719;28;20089;-82
2022/04/20 08:55:13;;;;;;;2.17;0.50;;;14.90;49.30;;;;;;4995107;28;20037;-82
2022/04/20 08:57:42;;;;;;;2.05;0.80;;;14.90;49.20;;;;;;4994652;28;20077;-84
2022/04/20 09:00:21;;;;;;;1.95;0.50;;;14.90;49.10;;;;;;4983702;28;20050;-82
2022/04/20 09:02:55;;;;;;;2.78;0.80;;;14.90;48.90;;;;;;4982492;28;20096;-82
2022/04/20 09:06:03;;;;;;;1.30;0.55;;;14.90;48.80;;;;;;4998955;28;20050;-90
2022/04/20 09:08:28;;;;;;;2.00;0.60;;;14.90;48.70;;;;;;4988857;28;20057;-88
2022/04/20 09:10:58;;;;;;;1.20;0.60;;;14.90;48.80;;;;;;4996752;28;20208;-88
2022/04/20 09:13:35;;;;;;;1.52;0.70;;;14.90;48.70;;;;;;4997014;28;20046;-88
2022/04/20 09:16:10;;;;;;;1.83;0.68;;;15.00;48.60;;;;;;5006137;28;20069;-86
2022/04/20 09:18:39;;;;;;;1.58;0.63;;;15.10;48.50;;;;;;4981871;28;20077;-86
2022/04/20 09:21:15;;;;;;;1.70;0.70;;;15.20;48.60;;;;;;5005492;28;20042;-88
2022/04/20 09:23:42;;;;;;;1.75;0.70;;;15.30;48.40;;;;;;5003948;28;20054;-88
2022/04/20 09:26:15;;;;;;;1.67;0.70;;;15.30;48.30;;;;;;4983150;28;20101;-84
2022/04/20 09:29:07;;;;;;;3.50;0.70;;;15.40;48.10;;;;;;4977438;28;20070;-85
2022/04/20 09:31:45;;;;;;;1.85;0.50;;;15.40;48.00;;;;;;4990790;28;20079;-85
2022/04/20 09:34:25;;;;;;;1.90;0.70;;;15.50;48.00;;;;;;5005571;28;20104;-85
2022/04/20 09:36:54;;;;;;;1.58;0.60;;;15.50;47.90;;;;;;4987832;28;20046;-85
2022/04/20 09:39:22;;;;;;;0.95;0.40;;;15.50;47.90;;;;;;4992459;28;20038;-85
2022/04/20 09:41:59;;;;;;;1.33;0.80;;;15.60;47.80;;;;;;4983537;28;20070;-86
2022/04/20 09:44:29;;;;;;;2.63;0.60;;;15.70;47.80;;;;;;5011113;28;20444;-84
2022/04/20 09:49:57;;;;;;;1.13;0.50;;;15.80;47.60;;;;;;4976936;28;20141;-83
2022/04/20 09:52:35;;;;;;;1.27;0.63;;;15.80;47.50;;;;;;4994449;28;20042;-84
2022/04/20 09:55:05;;;;;;;1.67;0.70;;;15.80;47.50;;;;;;4992122;28;20065;-85
2022/04/20 09:57:34;;;;;;;1.52;0.70;;;15.80;47.50;;;;;;4995449;28;20564;-84
2022/04/20 10:00:05;;;;;;;2.25;0.70;;;15.90;47.20;;;;;;4985848;28;20145;-81
2022/04/20 10:02:53;;;;;;;1.67;0.45;;;16.00;47.10;;;;;;5013717;28;20054;-81
2022/04/20 10:05:23;;;;;;;1.42;0.52;;;16.10;47.00;;;;;;4994624;28;20081;-84
2022/04/20 10:07:54;;;;;;;1.90;0.55;;;16.20;46.90;;;;;;5007440;28;20053;-84
2022/04/20 10:10:22;;;;;;;1.20;0.47;;;16.30;46.70;;;;;;4997897;28;20053;-84
2022/04/20 10:12:54;;;;;;;1.23;0.57;;;16.40;46.40;;;;;;4983849;28;20136;-83
2022/04/20 10:18:21;;;;;;;2.70;0.70;;;16.50;46.20;;;;;;5001905;28;20088;-88
2022/04/20 10:20:50;;;;;;;1.10;0.60;;;16.50;46.20;;;;;;4978964;28;20104;-87
2022/04/20 10:23:20;;;;;;;2.10;0.52;;;16.60;46.10;;;;;;4988052;28;20042;-86
2022/04/20 10:25:50;;;;;;;1.20;0.40;;;16.80;45.80;;;;;;4965542;28;20069;-87
2022/04/20 10:28:32;;;;;;;1.58;0.60;;;16.90;45.60;;;;;;4982376;28;20054;-88
2022/04/20 10:31:09;;;;;;;1.13;0.52;;;16.90;45.50;;;;;;4982122;28;20038;-87
2022/04/20 10:33:40;;;;;;;1.20;0.40;;;16.80;45.60;;;;;;4998565;28;20049;-87
2022/04/20 10:36:35;;;;;;;1.80;0.60;;;16.70;45.80;;;;;;4997366;28;20387;-86
2022/04/20 10:39:22;;;;;;;;;;;16.70;46.00;;;;;;5000482;28;20133;-86
2022/04/20 10:42:12;;;;;;;1.38;0.55;;;16.70;45.90;;;;;;4986347;28;20008;-86
2022/04/20 10:44:51;;;;;;;1.63;0.70;;;16.80;45.70;;;;;;4997710;28;20410;-86
2022/04/20 10:47:35;;;;;;;1.02;0.40;;;16.80;45.70;;;;;;5004389;28;20045;-89
2022/04/20 10:50:19;;;;;;;0.82;0.50;;;16.80;45.50;;;;;;4985248;28;20100;-89
2022/04/20 10:53:19;;;;;;;;;;;;;;;;;;;;;
2022/04/20 10:55:51;;;;;;;1.65;0.60;;;16.80;45.50;;;;;;5014387;28;19925;-85
2022/04/20 10:58:29;;;;;;;2.33;1.05;;;17.10;45.10;;;;;;4998949;28;20089;-86
2022/04/20 11:01:11;;;;;;;1.58;0.70;;;17.20;44.90;;;;;;4999587;28;20066;-85
2022/04/20 11:03:57;;;;;;;1.93;0.63;;;17.10;45.00;;;;;;5006927;28;20050;-86
2022/04/20 11:06:46;;;;;;;1.98;0.73;;;17.30;45.00;;;;;;5002758;28;20322;-85
2022/04/20 11:09:45;;;;;;;1.30;0.60;;;17.60;44.50;;;;;;5015784;28;20045;-85
2022/04/20 11:21:07;;;;;;;2.13;0.70;;;16.90;45.50;;;;;;5015252;28;20072;-87
2022/04/20 11:23:53;;;;;;;2.38;0.47;;;16.90;45.60;;;;;;5000367;28;20243;-87
2022/04/20 11:26:27;;;;;;;0.90;0.40;;;17.60;45.10;;;;;;4972715;28;20038;-87
2022/04/20 11:28:59;;;;;;;1.20;0.40;;;18.60;43.80;;;;;;4994034;28;20049;-87
2022/04/20 11:31:37;;;;;;;1.75;0.43;;;19.50;42.50;;;;;;4990777;28;20042;-93
2022/04/20 11:34:06;;;;;;;1.17;0.50;;;20.10;41.50;;;;;;4991642;28;20045;-85
2022/04/20 11:36:37;;;;;;;2.00;0.60;;;20.30;41.00;;;;;;4996405;28;20147;-86
2022/04/20 11:39:05;;;;;;;1.13;0.55;;;20.50;40.80;;;;;;4993734;28;20057;-86
2022/04/20 11:41:35;;;;;;;2.83;0.70;;;20.60;40.70;;;;;;4980899;28;20046;-86
2022/04/20 11:44:05;;;;;;;0.95;0.52;;;20.70;40.70;;;;;;5009189;28;20049;-85
2022/04/20 11:46:43;;;;;;;1.33;0.60;;;20.90;40.50;;;;;;4987126;28;20049;-85
2022/04/20 11:49:11;;;;;;;1.25;0.50;;;21.00;40.30;;;;;;4989892;28;20038;-85
2022/04/20 11:51:57;;;;;;;2.40;0.60;;;21.20;40.20;;;;;;4991161;28;20455;-85
2022/04/20 11:54:30;;;;;;;2.15;0.60;;;21.30;40.10;;;;;;4996700;28;20042;-84
2022/04/20 11:57:07;;;;;;;1.70;0.60;;;21.50;40.10;;;;;;5010671;28;20493;-85
2022/04/20 11:59:43;;;;;;;1.58;0.80;;;21.70;40.00;;;;;;4984990;28;20050;-85
2022/04/20 12:02:15;;;;;;;1.55;0.80;;;21.70;39.80;;;;;;4988984;28;20035;-85
2022/04/20 12:04:44;;;;;;;1.52;0.80;;;21.60;39.80;;;;;;4976612;28;20056;-87
2022/04/20 12:07:14;;;;;;;1.23;0.50;;;21.70;39.90;;;;;;4977480;28;20053;-89
2022/04/20 12:09:46;;;;;;;1.85;0.70;;;21.20;40.10;;;;;;4997197;28;20084;-87
2022/04/20 12:12:16;;;;;;;2.03;0.95;;;20.30;41.00;;;;;;5012870;28;20136;-85
2022/04/20 12:15:11;;;;;;;2.03;0.70;;;19.50;41.80;;;;;;4975488;28;20401;-88
2022/04/20 12:18:27;;;;;;;2.47;0.65;;;18.90;42.50;;;;;;5012249;28;20052;-89
2022/04/20 12:21:01;;;;;;;1.30;0.60;;;18.50;43.10;;;;;;4978044;28;20050;-85
2022/04/20 12:24:31;;;;;;;1.60;0.70;;;18.20;43.60;;;;;;4981379;28;20049;-92
2022/04/20 12:27:35;;;;;;;;;;;17.90;43.90;;;;;;5010706;28;20501;-89
2022/04/20 12:30:46;;;;;;;1.70;0.60;;;17.70;44.30;;;;;;5000340;28;19921;-90
2022/04/20 12:33:41;;;;;;;1.08;0.50;;;17.60;44.40;;;;;;4968137;28;20137;-91
2022/04/20 12:36:19;;;;;;;2.53;0.70;;;17.60;44.40;;;;;;5003126;28;20037;-90
2022/04/20 12:38:52;;;;;;;2.45;0.77;;;17.50;44.50;;;;;;5000426;28;20042;-87
2022/04/20 12:41:48;;;;;;;1.25;0.50;;;17.50;44.50;;;;;;4998512;28;20399;-85
2022/04/20 12:44:38;;;;;;;1.23;0.50;;;17.50;44.50;;;;;;4997748;28;20053;-95
2022/04/20 12:47:13;;;;;;;1.60;0.50;;;17.50;44.60;;;;;;4984232;28;20491;-83
2022/04/20 12:50:46;;;;;;;2.10;0.77;;;17.50;44.60;;;;;;4996984;28;20140;-96
2022/04/20 12:53:13;;;;;;;2.63;0.60;;;17.50;44.70;;;;;;4999053;28;20053;-87
2022/04/20 13:02:18;;;;;;;2.15;0.60;;;17.40;44.80;;;;;;5006530;28;20046;-91
2022/04/20 13:04:50;;;;;;;2.08;0.50;;;17.30;44.90;;;;;;5016348;28;20072;-88
2022/04/20 13:07:17;;;;;;;1.45;0.60;;;17.40;45.00;;;;;;5000801;28;20053;-90
2022/04/20 13:09:47;;;;;;;1.85;0.70;;;17.40;45.10;;;;;;5013336;28;20053;-88
2022/04/20 13:12:14;;;;;;;1.92;0.60;;;17.40;45.60;;;;;;5003112;28;20129;-89
2022/04/20 13:14:44;;;;;;;1.58;0.60;;;17.40;45.00;;;;;;5016250;28;20386;-86
2022/04/20 13:17:11;;;;;;;1.52;0.50;;;17.50;45.10;;;;;;5002309;28;20057;-84
2022/04/20 13:19:39;;;;;;;1.65;0.55;;;17.50;45.00;;;;;;5013958;28;20072;-87
2022/04/20 13:22:10;;;;;;;1.13;0.52;;;17.50;45.10;;;;;;5013243;28;20042;-84
2022/04/20 13:27:57;;;;;;;1.00;0.50;;;17.50;45.10;;;;;;5012260;28;20050;-87
2022/04/20 13:39:15;;;;;;;1.70;0.40;;;17.50;45.10;;;;;;4965872;28;20051;-91
2022/04/20 13:42:13;;;;;;;2.60;0.50;;;17.50;45.20;;;;;;4893483;29;20051;-81
2022/04/20 13:44:40;;;;;;;0.65;0.30;;;17.60;45.10;;;;;;4904611;29;20138;-81
2022/04/20 13:47:07;;;;;;;1.02;0.50;;;17.60;45.00;;;;;;4927597;29;20052;-81
2022/04/20 13:49:34;;;;;;;1.08;0.35;;;17.60;44.80;;;;;;4904378;29;20058;-81
2022/04/20 13:52:03;;;;;;;0.60;0.30;;;17.70;44.80;;;;;;4935652;29;20043;-82
2022/04/20 13:54:31;;;;;;;1.15;0.45;;;17.70;44.80;;;;;;4904370;29;20094;-82
2022/04/20 13:56:58;;;;;;;0.90;0.40;;;17.70;44.60;;;;;;4920776;29;20058;-81
2022/04/20 13:59:25;;;;;;;0.90;0.30;;;17.70;44.60;;;;;;4897278;29;20400;-81
2022/04/20 14:01:54;;;;;;;1.60;0.55;;;17.70;44.60;;;;;;4904350;29;20054;-82
2022/04/20 14:04:22;;;;;;;3.25;0.50;;;17.70;44.50;;;;;;4904184;29;20102;-81
2022/04/20 14:06:52;;;;;;;1.10;0.50;;;17.70;44.50;;;;;;4935315;29;20059;-81
2022/04/20 14:09:19;;;;;;;1.27;0.38;;;17.70;44.60;;;;;;4956891;28;20419;-81
2022/04/20 14:11:48;;;;;;;2.03;0.50;;;17.80;44.60;;;;;;4993360;28;20137;-86
2022/04/20 14:14:16;;;;;;;0.65;0.25;;;17.70;44.40;;;;;;4995421;28;20054;-84
2022/04/20 14:16:54;;;;;;;1.42;0.82;;;17.80;44.50;;;;;;5014877;28;20050;-92
2022/04/20 14:34:28;;;;;;;0.70;0.30;;;19.20;43.80;;;;;;4991301;28;20062;-89
2022/04/20 14:36:55;;;;;;;1.65;0.32;;;21.20;41.90;;;;;;4979006;28;20207;-89
2022/04/20 14:39:25;;;;;;;0.73;0.25;;;22.60;40.00;;;;;;5020259;28;20053;-89
2022/04/20 14:41:54;;;;;;;1.02;0.43;;;23.80;39.10;;;;;;5010860;28;20051;-86